Farmington, NM

10:31 AM MDT on September 21, 2014 (GMT -0600)
Four Corners Regional | Change Station
CLOSE
Current Station
Airport
Location: Farmington,
Elevation: 5502 ft
Nearby Weather Stations

Elev 5502 ft 36.74 °N, 108.23 °W | Updated 38 minutes ago

Clear
Clear
73 °F
Feels Like 73 °F
N
14
Wind Variable Wind from East

Today
High -- | Low -- °F
--% Chance of Precip.
Yesterday
High -- | Low -- °F
Precip. -- in
6:59 AM 7:11 PM
Waning Crescent, 6% visible
Pressure 30.09 in
Visibility 10.0 miles
Clouds Clear
Dew Point 54 °F
Humidity 51%
Rainfall 0.00 in
Snow Depth 0 in , 0 in , 3 in
UV 4 out of 12
Pollen 6.30 out of 12
Air Quality Not available.
Flu Activity Not available.
METAR KFMN 211553Z 10012KT 10SM CLR 23/12 A3028 RMK AO2 SLP189 T02280122

More Conditions Fewer Conditions

Pressure 30.09 in
Visibility 10.0 miles
Clouds Clear
Dew Point 54 °F
Humidity 51%
Rainfall 0.00 in
Snow Depth 0 in , 0 in , 3 in
UV 4 out of 12
Pollen 6.30 out of 12
Air Quality Not available.
Flu Activity Not available.
METAR KFMN 211553Z 10012KT 10SM CLR 23/12 A3028 RMK AO2 SLP189 T02280122

More Conditions Fewer Conditions

10-Day Weather Forecast

Almanac

Astronomy

Sep. 21, 2014 Rise Set
Actual Time 6:59 AM MDT 7:11 PM MDT
Civil Twilight 6:34 AM MDT 7:36 PM MDT
Nautical Twilight 6:03 AM MDT 8:07 PM MDT
Astronomical Twilight 5:33 AM MDT 8:37 PM MDT
Moon 4:39 AM MDT 5:46 PM MDT
Length of Visible Light 13h 02m
Length of Day
12h 11m
Tomorrow will be 2m 18s shorter.
Waning Crescent, 6% of the Moon is Illuminated
Today
Waning Crescent
Sep 24
New
Oct 1
First Quarter
Oct 8
Full
Oct 15
Last Quarter

Today's Extremes

State Highs State Lows

Community

WunderPhotos

Upload Photos

1,755,186 photos uploaded!

Nearby

Snow Depth

Station Depth Elevation
Elk Cabin 0 in 8210 ft
Frisco Divide 0 in 8000 ft
Wesner Springs 3 in 11120 ft
Silver Creek Divide 1 in 9000 ft
Signal Peak 1 in 8360 ft

Earthquake Activity

City Distance Mag. Time & Date
No recent earthquake activity has been reported nearby.
Minimum magnitude displayed is 2.5.

Coastal Water Temperatures

Place Temperature
No Stations Reporting

Nearby Weather Stations